createdAt,value
2023-02-18T00:00:17.182Z,282.20
2023-02-18T00:02:46.222Z,287.67
2023-02-18T00:05:14.432Z,280.23
2023-02-18T00:07:42.932Z,270.40
2023-02-18T00:10:14.184Z,277.88
2023-02-18T00:12:42.793Z,274.40
2023-02-18T00:15:12.061Z,278.02
2023-02-18T00:17:39.832Z,288.52
2023-02-18T00:20:08.625Z,274.17
2023-02-18T00:22:36.805Z,281.73
2023-02-18T00:25:04.756Z,275.20
2023-02-18T00:27:32.807Z,288.63
2023-02-18T00:30:03.988Z,292.58
2023-02-18T00:32:33.563Z,259.83
2023-02-18T00:35:02.056Z,302.55
2023-02-18T00:37:30.308Z,297.83
2023-02-18T00:39:58.033Z,286.98
2023-02-18T00:42:25.715Z,285.52
2023-02-18T00:44:54.505Z,301.48
2023-02-18T00:47:22.462Z,272.42
2023-02-18T00:49:51.458Z,286.35
2023-02-18T00:52:19.124Z,288.60
2023-02-18T00:54:46.823Z,281.13
2023-02-18T00:57:14.479Z,279.27
2023-02-18T00:59:42.375Z,286.85
2023-02-18T01:02:10.183Z,288.73
2023-02-18T01:04:38.085Z,287.15
2023-02-18T01:07:07.145Z,297.35
2023-02-18T01:09:34.806Z,277.20
2023-02-18T01:12:02.500Z,270.70
2023-02-18T01:14:30.271Z,283.20
2023-02-18T01:16:58.032Z,287.92
2023-02-18T01:19:25.773Z,269.02
2023-02-18T01:21:53.513Z,286.33
2023-02-18T01:24:23.006Z,301.58
2023-02-18T01:26:50.828Z,303.67
2023-02-18T01:29:18.477Z,303.83
2023-02-18T01:31:46.352Z,292.35
2023-02-18T01:34:16.231Z,311.17
2023-02-18T01:36:43.895Z,299.70
2023-02-18T01:39:11.644Z,307.42
2023-02-18T01:41:40.634Z,297.70
2023-02-18T01:44:13.694Z,291.73
2023-02-18T01:46:41.443Z,303.67
2023-02-18T01:49:11.722Z,295.95
2023-02-18T01:51:42.608Z,302.25
2023-02-18T01:54:15.405Z,295.70
2023-02-18T01:56:49.480Z,265.33
2023-02-18T01:59:22.652Z,296.58
2023-02-18T02:01:50.553Z,317.60
2023-02-18T02:04:18.886Z,288.35
2023-02-18T02:06:46.630Z,281.80
2023-02-18T02:09:17.337Z,293.88
2023-02-18T02:12:16.933Z,289.25
2023-02-18T02:15:03.096Z,289.17
2023-02-18T02:17:39.013Z,281.20
2023-02-18T02:21:03.934Z,291.02
2023-02-18T02:24:14.978Z,284.95
2023-02-18T02:27:06.848Z,272.80
2023-02-18T02:30:15.522Z,280.27
2023-02-18T02:33:09.179Z,266.45
2023-02-18T02:35:41.097Z,283.77
2023-02-18T02:38:15.472Z,273.40
2023-02-18T02:40:48.218Z,282.25
2023-02-18T02:43:22.484Z,288.52
2023-02-18T02:45:56.904Z,301.88
2023-02-18T02:48:34.024Z,285.48
2023-02-18T02:51:10.325Z,270.77
2023-02-18T02:53:41.079Z,294.30
2023-02-18T02:56:14.500Z,292.60
2023-02-18T02:58:42.804Z,290.02
2023-02-18T03:01:24.676Z,292.88
2023-02-18T03:04:20.409Z,297.52
2023-02-18T03:07:02.979Z,280.83
2023-02-18T03:09:39.790Z,287.33
2023-02-18T03:12:17.711Z,286.33
2023-02-18T03:14:55.139Z,295.95
2023-02-18T03:17:26.538Z,297.45
2023-02-18T03:19:58.022Z,292.70
2023-02-18T03:22:31.924Z,285.70
2023-02-18T03:25:03.925Z,292.27
2023-02-18T03:27:35.978Z,295.90
2023-02-18T03:30:08.563Z,301.02
2023-02-18T03:32:37.006Z,293.00
2023-02-18T03:35:09.534Z,277.60
2023-02-18T03:37:43.869Z,270.65
2023-02-18T03:40:12.827Z,291.10
2023-02-18T03:42:40.474Z,280.73
2023-02-18T03:45:08.955Z,273.27
2023-02-18T03:47:37.458Z,298.42
2023-02-18T03:50:05.819Z,287.42
2023-02-18T03:52:36.465Z,275.30
2023-02-18T03:55:06.439Z,281.00
2023-02-18T03:57:34.307Z,291.20
2023-02-18T04:00:02.156Z,286.52
2023-02-18T04:02:41.105Z,283.25
2023-02-18T04:05:09.296Z,284.20
2023-02-18T04:07:37.023Z,294.60
2023-02-18T04:10:08.348Z,279.35
2023-02-18T04:12:36.009Z,283.63
2023-02-18T04:15:03.811Z,281.55
2023-02-18T04:17:31.532Z,292.38
2023-02-18T04:19:59.237Z,295.33
2023-02-18T04:22:26.953Z,281.10
2023-02-18T04:24:54.607Z,289.25
2023-02-18T04:27:23.759Z,290.27
2023-02-18T04:29:51.706Z,291.42
2023-02-18T04:32:19.369Z,298.48
2023-02-18T04:34:47.066Z,277.45
2023-02-18T04:37:14.695Z,289.27
2023-02-18T04:39:42.557Z,309.75
2023-02-18T04:42:10.360Z,302.50
2023-02-18T04:44:39.783Z,301.80
2023-02-18T04:47:08.334Z,317.70
2023-02-18T04:49:36.212Z,287.40
2023-02-18T04:52:04.116Z,299.70
2023-02-18T04:54:31.810Z,305.05
2023-02-18T04:56:59.612Z,314.02
2023-02-18T04:59:27.251Z,298.08
2023-02-18T05:01:56.368Z,294.23
2023-02-18T05:04:24.322Z,307.70
2023-02-18T05:06:52.088Z,290.10
2023-02-18T05:09:19.779Z,313.48
2023-02-18T05:11:48.806Z,309.75
2023-02-18T05:14:16.611Z,294.73
2023-02-18T05:16:44.279Z,326.15
2023-02-18T05:19:15.204Z,295.45
2023-02-18T05:21:43.214Z,305.10
2023-02-18T05:24:11.066Z,288.63
2023-02-18T05:26:39.035Z,299.90
2023-02-18T05:29:07.049Z,299.45
2023-02-18T05:31:35.007Z,297.00
2023-02-18T05:34:02.689Z,284.30
2023-02-18T05:36:31.704Z,286.17
2023-02-18T05:38:59.358Z,285.90
2023-02-18T05:41:27.041Z,298.27
2023-02-18T05:44:12.438Z,291.02
2023-02-18T05:46:40.201Z,262.55
2023-02-18T05:49:07.852Z,281.30
2023-02-18T05:51:36.893Z,286.58
2023-02-18T05:54:05.201Z,280.77
2023-02-18T05:56:32.869Z,279.95
2023-02-18T05:59:00.543Z,283.10
2023-02-18T06:01:28.214Z,279.20
2023-02-18T06:03:55.886Z,262.52
2023-02-18T06:06:23.514Z,300.95
2023-02-18T06:08:52.483Z,289.90
2023-02-18T06:11:20.166Z,278.00
2023-02-18T06:13:51.191Z,270.77
2023-02-18T06:16:18.918Z,274.67
2023-02-18T06:18:46.638Z,281.35
2023-02-18T06:21:14.285Z,280.42
2023-02-18T06:23:42.132Z,289.00
2023-02-18T06:26:11.363Z,275.30
2023-02-18T06:28:39.126Z,253.90
2023-02-18T06:31:07.017Z,290.58
2023-02-18T06:33:34.699Z,280.83
2023-02-18T06:36:07.063Z,289.10
2023-02-18T06:38:35.767Z,286.27
2023-02-18T06:41:04.018Z,280.25
2023-02-18T06:43:33.203Z,266.25
2023-02-18T06:46:00.865Z,274.17
2023-02-18T06:48:28.619Z,270.33
2023-02-18T06:50:58.004Z,280.20
2023-02-18T06:53:25.782Z,274.35
2023-02-18T06:55:53.439Z,292.38
2023-02-18T06:58:21.145Z,291.48
2023-02-18T07:00:50.178Z,286.08
2023-02-18T07:03:17.849Z,260.83
2023-02-18T07:05:45.625Z,280.58
2023-02-18T07:08:13.614Z,293.60
2023-02-18T07:10:41.431Z,281.13
2023-02-18T07:13:09.036Z,286.80
2023-02-18T07:15:36.737Z,268.50
2023-02-18T07:18:05.919Z,274.00
2023-02-18T07:20:33.927Z,288.45
2023-02-18T07:23:01.674Z,285.42
2023-02-18T07:25:29.350Z,303.73
2023-02-18T07:27:57.002Z,277.45
2023-02-18T07:30:24.791Z,272.98
2023-02-18T07:32:52.504Z,275.98
2023-02-18T07:35:22.286Z,291.20
2023-02-18T07:37:51.187Z,266.38
2023-02-18T07:40:21.699Z,275.85
2023-02-18T07:42:49.785Z,276.88
2023-02-18T07:45:17.591Z,272.70
2023-02-18T07:47:45.451Z,274.23
2023-02-18T07:50:13.761Z,272.98
2023-02-18T07:52:42.799Z,280.50
2023-02-18T07:55:10.480Z,303.70
2023-02-18T07:57:57.201Z,291.48
2023-02-18T08:00:25.216Z,290.52
2023-02-18T08:02:52.928Z,281.80
2023-02-18T08:05:20.742Z,285.38
2023-02-18T08:07:49.777Z,291.95
2023-02-18T08:10:18.195Z,279.67
2023-02-18T08:12:45.848Z,281.52
2023-02-18T08:15:14.129Z,296.25
2023-02-18T08:17:41.725Z,287.00
2023-02-18T08:20:10.655Z,283.80
2023-02-18T08:22:38.356Z,291.77
2023-02-18T08:25:09.188Z,298.10
2023-02-18T08:27:39.593Z,285.80
2023-02-18T08:30:08.716Z,291.00
2023-02-18T08:32:36.564Z,300.95
2023-02-18T08:35:04.437Z,280.60
2023-02-18T08:37:52.949Z,272.17
2023-02-18T08:40:21.757Z,282.00
2023-02-18T08:42:49.490Z,277.17
2023-02-18T08:45:17.189Z,272.20
2023-02-18T08:48:16.817Z,294.23
2023-02-18T08:50:32.759Z,278.15
2023-02-18T08:53:03.228Z,298.92
2023-02-18T08:55:33.133Z,283.65
2023-02-18T08:58:01.166Z,288.58
2023-02-18T09:00:29.149Z,287.23
2023-02-18T09:02:56.929Z,294.08
2023-02-18T09:05:24.599Z,283.48
2023-02-18T09:07:52.245Z,295.77
2023-02-18T09:10:20.222Z,301.50
2023-02-18T09:12:49.589Z,285.73
2023-02-18T09:15:17.478Z,291.83
2023-02-18T09:17:45.169Z,294.95
2023-02-18T09:20:13.577Z,295.17
2023-02-18T09:22:41.320Z,292.17
2023-02-18T09:25:09.393Z,307.95
2023-02-18T09:27:37.103Z,299.13
2023-02-18T09:30:07.547Z,295.02
2023-02-18T09:32:35.718Z,288.38
2023-02-18T09:35:03.832Z,294.17
2023-02-18T09:37:31.734Z,297.23
2023-02-18T09:39:59.973Z,274.17
2023-02-18T09:42:33.116Z,285.17
2023-02-18T09:45:03.468Z,277.83
2023-02-18T09:47:36.933Z,295.65
2023-02-18T09:50:09.977Z,285.88
2023-02-18T09:52:39.316Z,293.17
2023-02-18T09:55:23.170Z,274.25
2023-02-18T09:57:54.293Z,269.27
2023-02-18T10:00:26.208Z,302.67
2023-02-18T10:03:00.745Z,299.40
2023-02-18T10:05:30.570Z,270.20
2023-02-18T10:08:02.951Z,288.33
2023-02-18T10:10:38.847Z,294.63
2023-02-18T10:13:13.872Z,284.48
2023-02-18T10:15:42.833Z,274.38
2023-02-18T10:18:22.705Z,289.48
2023-02-18T10:20:52.764Z,266.15
2023-02-18T10:23:22.202Z,320.83
2023-02-18T10:25:51.258Z,306.77
2023-02-18T10:28:23.852Z,293.73
2023-02-18T10:30:55.893Z,316.80
2023-02-18T10:33:34.871Z,325.67
2023-02-18T10:36:13.763Z,319.10
2023-02-18T10:38:50.731Z,285.27
2023-02-18T10:41:27.079Z,309.23
2023-02-18T10:44:04.671Z,317.08
2023-02-18T10:46:38.492Z,298.35
2023-02-18T10:49:29.071Z,309.00
2023-02-18T10:52:00.123Z,305.55
2023-02-18T10:54:48.341Z,321.45
2023-02-18T10:57:19.342Z,308.90
2023-02-18T10:59:57.512Z,326.83
2023-02-18T11:02:29.763Z,347.20
2023-02-18T11:05:01.867Z,338.92
2023-02-18T11:07:34.101Z,335.92
2023-02-18T11:10:10.493Z,313.67
2023-02-18T11:12:46.964Z,332.02
2023-02-18T11:15:20.726Z,328.83
2023-02-18T11:17:50.216Z,329.00
2023-02-18T11:20:35.582Z,342.08
2023-02-18T11:23:21.223Z,328.48
2023-02-18T11:25:58.873Z,335.95
2023-02-18T11:28:43.258Z,322.98
2023-02-18T11:31:17.313Z,321.92
2023-02-18T11:33:50.371Z,338.83
2023-02-18T11:36:24.721Z,336.92
2023-02-18T11:38:55.251Z,347.02
2023-02-18T11:41:32.210Z,338.50
2023-02-18T11:44:01.524Z,326.75
2023-02-18T11:46:29.720Z,348.63
2023-02-18T11:48:57.748Z,320.83
2023-02-18T11:51:29.403Z,331.13
2023-02-18T11:54:00.582Z,335.80
2023-02-18T11:56:30.715Z,332.42
2023-02-18T11:58:59.302Z,318.25
2023-02-18T12:01:37.297Z,330.48
2023-02-18T12:04:12.223Z,353.00
2023-02-18T12:06:50.019Z,328.85
2023-02-18T12:09:29.634Z,323.23
2023-02-18T12:12:00.411Z,336.90
2023-02-18T12:14:28.801Z,317.45
2023-02-18T12:17:27.106Z,331.52
2023-02-18T12:20:12.928Z,320.30
2023-02-18T12:22:45.958Z,319.88
2023-02-18T12:25:26.273Z,305.10
2023-02-18T12:28:09.657Z,314.48
2023-02-18T12:30:54.801Z,309.58
2023-02-18T12:33:31.461Z,293.90
2023-02-18T12:36:08.948Z,269.15
2023-02-18T12:39:09.262Z,280.67
2023-02-18T12:41:49.954Z,278.48
2023-02-18T12:44:33.143Z,295.50
2023-02-18T12:47:18.463Z,270.73
2023-02-18T12:50:15.265Z,278.58
2023-02-18T12:52:53.249Z,269.30
2023-02-18T12:55:45.364Z,276.40
2023-02-18T12:58:29.358Z,294.38
2023-02-18T13:01:26.273Z,279.05
2023-02-18T13:04:25.458Z,271.30
2023-02-18T13:07:04.679Z,274.30
2023-02-18T13:09:48.422Z,279.25
2023-02-18T13:12:26.122Z,276.45
2023-02-18T13:15:01.343Z,293.90
2023-02-18T13:17:35.053Z,269.77
2023-02-18T13:20:08.177Z,273.63
2023-02-18T13:22:36.394Z,295.65
2023-02-18T13:25:04.110Z,296.80
2023-02-18T13:27:39.868Z,294.60
2023-02-18T13:30:20.168Z,275.60
2023-02-18T13:32:58.254Z,269.95
2023-02-18T13:35:32.397Z,283.38
2023-02-18T13:38:13.631Z,295.35
2023-02-18T13:40:42.073Z,276.25
2023-02-18T13:43:29.510Z,276.55
2023-02-18T13:46:08.964Z,282.83
2023-02-18T13:48:44.339Z,287.80
2023-02-18T13:51:14.491Z,271.40
2023-02-18T13:53:44.215Z,284.33
2023-02-18T13:56:22.063Z,284.88
2023-02-18T13:58:54.982Z,284.20
2023-02-18T14:01:26.325Z,298.75
2023-02-18T14:03:57.408Z,287.92
2023-02-18T14:06:27.678Z,278.75
2023-02-18T14:09:25.733Z,282.40
2023-02-18T14:11:57.740Z,292.52
2023-02-18T14:14:38.503Z,279.88
2023-02-18T14:17:31.139Z,269.98
2023-02-18T14:20:43.873Z,286.67
2023-02-18T14:23:46.826Z,282.52
2023-02-18T14:26:26.574Z,285.25
2023-02-18T14:28:59.816Z,292.95
2023-02-18T14:31:44.686Z,272.45
2023-02-18T14:34:55.150Z,288.15
2023-02-18T14:37:38.148Z,273.33
2023-02-18T14:40:22.244Z,277.33
2023-02-18T14:43:01.612Z,275.52
2023-02-18T14:45:41.279Z,278.83
2023-02-18T14:48:26.174Z,287.55
2023-02-18T14:50:56.480Z,289.52
2023-02-18T14:53:27.108Z,294.67
2023-02-18T14:55:59.379Z,287.52
2023-02-18T14:58:32.551Z,304.52
2023-02-18T15:01:07.407Z,303.20
2023-02-18T15:03:35.194Z,311.23
2023-02-18T15:06:02.936Z,299.70
2023-02-18T15:08:38.347Z,303.50
2023-02-18T15:11:08.450Z,322.25
2023-02-18T15:13:38.039Z,303.95
2023-02-18T15:16:10.339Z,324.95
2023-02-18T15:18:41.402Z,300.58
2023-02-18T15:21:11.162Z,300.50
2023-02-18T15:23:41.760Z,300.98
2023-02-18T15:26:15.644Z,298.63
2023-02-18T15:28:52.838Z,303.23
2023-02-18T15:31:27.199Z,318.38
2023-02-18T15:33:54.968Z,305.95
2023-02-18T15:36:22.995Z,304.08
2023-02-18T15:38:50.720Z,312.92
2023-02-18T15:41:21.092Z,309.75
2023-02-18T15:43:56.177Z,318.25
2023-02-18T15:46:26.380Z,322.45
2023-02-18T15:48:56.077Z,310.20
2023-02-18T15:51:27.809Z,303.83
2023-02-18T15:53:57.831Z,317.48
2023-02-18T15:56:31.352Z,297.85
2023-02-18T15:59:19.087Z,322.88
2023-02-18T16:01:51.507Z,311.77
2023-02-18T16:04:21.053Z,320.67
2023-02-18T16:06:51.428Z,320.95
2023-02-18T16:09:23.730Z,314.63
2023-02-18T16:11:54.992Z,313.88
2023-02-18T16:14:27.448Z,323.95
2023-02-18T16:17:14.930Z,312.60
2023-02-18T16:20:03.306Z,312.85
2023-02-18T16:22:36.154Z,310.25
2023-02-18T16:25:15.336Z,292.17
2023-02-18T16:27:50.650Z,325.63
2023-02-18T16:30:20.959Z,321.75
2023-02-18T16:32:50.287Z,319.13
2023-02-18T16:35:18.203Z,321.20
2023-02-18T16:37:47.937Z,318.67
2023-02-18T16:40:24.717Z,311.02
2023-02-18T16:42:53.562Z,293.38
2023-02-18T16:45:22.115Z,312.13
2023-02-18T16:47:51.113Z,307.02
2023-02-18T16:50:21.665Z,311.73
2023-02-18T16:52:49.998Z,321.50
2023-02-18T16:55:20.111Z,298.23
2023-02-18T16:57:48.482Z,300.95
2023-02-18T17:00:18.378Z,337.08
2023-02-18T17:02:49.526Z,299.42
2023-02-18T17:05:26.852Z,311.15
2023-02-18T17:07:55.401Z,308.73
2023-02-18T17:10:23.073Z,306.75
2023-02-18T17:12:50.694Z,310.20
2023-02-18T17:15:28.162Z,324.05
2023-02-18T17:17:58.111Z,311.65
2023-02-18T17:20:28.175Z,290.83
2023-02-18T17:22:56.848Z,306.92
2023-02-18T17:25:26.671Z,310.88
2023-02-18T17:27:54.699Z,296.08
2023-02-18T17:30:22.489Z,307.70
2023-02-18T17:32:50.620Z,290.50
2023-02-18T17:35:19.944Z,300.95
2023-02-18T17:37:49.869Z,288.95
2023-02-18T17:40:20.942Z,293.45
2023-02-18T17:42:51.068Z,292.15
2023-02-18T17:45:23.022Z,293.23
2023-02-18T17:47:50.692Z,282.58
2023-02-18T17:50:18.520Z,296.58
2023-02-18T17:52:46.413Z,294.85
2023-02-18T17:55:22.495Z,304.83
2023-02-18T17:57:51.058Z,284.98
2023-02-18T18:00:21.476Z,298.02
2023-02-18T18:02:49.493Z,295.40
2023-02-18T18:05:20.993Z,281.55
2023-02-18T18:07:49.923Z,282.20
2023-02-18T18:10:21.844Z,269.17
2023-02-18T18:12:49.951Z,289.00
2023-02-18T18:15:24.252Z,300.77
2023-02-18T18:17:52.379Z,292.65
2023-02-18T18:20:20.696Z,262.02
2023-02-18T18:22:48.718Z,295.48
2023-02-18T18:25:23.928Z,291.33
2023-02-18T18:27:52.888Z,279.17
2023-02-18T18:30:23.173Z,266.42
2023-02-18T18:32:50.956Z,276.88
2023-02-18T18:35:24.848Z,284.75
2023-02-18T18:37:52.950Z,287.10
2023-02-18T18:40:23.835Z,288.33
2023-02-18T18:42:51.916Z,278.02
2023-02-18T18:45:23.025Z,248.15
2023-02-18T18:47:51.020Z,254.23
2023-02-18T18:50:19.906Z,274.73
2023-02-18T18:52:49.290Z,262.98
2023-02-18T18:55:25.508Z,275.08
2023-02-18T18:57:54.012Z,274.15
2023-02-18T19:00:23.877Z,269.23
2023-02-18T19:02:51.600Z,282.13
2023-02-18T19:05:25.865Z,273.85
2023-02-18T19:07:54.000Z,277.83
2023-02-18T19:10:23.919Z,272.92
2023-02-18T19:12:51.695Z,269.25
2023-02-18T19:15:22.391Z,271.83
2023-02-18T19:17:52.036Z,278.33
2023-02-18T19:20:21.816Z,279.15
2023-02-18T19:22:49.786Z,281.92
2023-02-18T19:25:18.066Z,271.20
2023-02-18T19:27:48.445Z,285.23
2023-02-18T19:30:18.820Z,266.42
2023-02-18T19:32:47.075Z,291.35
2023-02-18T19:35:14.724Z,271.38
2023-02-18T19:37:42.781Z,273.83
2023-02-18T19:40:13.820Z,281.33
2023-02-18T19:42:42.134Z,277.33
2023-02-18T19:45:11.801Z,272.35
2023-02-18T19:47:40.105Z,266.48
2023-02-18T19:50:09.153Z,263.63
2023-02-18T19:52:37.009Z,266.27
2023-02-18T19:55:04.977Z,268.75
2023-02-18T19:57:33.038Z,279.67
2023-02-18T20:00:00.695Z,280.83
2023-02-18T20:02:30.546Z,270.27
2023-02-18T20:05:01.500Z,287.27
2023-02-18T20:07:31.106Z,272.92
2023-02-18T20:09:58.830Z,282.95
2023-02-18T20:12:26.719Z,259.65
2023-02-18T20:14:54.546Z,277.60
2023-02-18T20:17:22.184Z,280.40
2023-02-18T20:19:51.247Z,252.63
2023-02-18T20:22:18.973Z,273.20
2023-02-18T20:24:47.878Z,287.27
2023-02-18T20:27:15.916Z,286.63
2023-02-18T20:29:44.609Z,296.92
2023-02-18T20:32:12.342Z,271.40
2023-02-18T20:34:40.031Z,267.40
2023-02-18T20:37:09.146Z,271.73
2023-02-18T20:39:36.861Z,278.77
2023-02-18T20:42:15.545Z,277.75
2023-02-18T20:44:44.048Z,279.58
2023-02-18T20:47:13.428Z,276.80
2023-02-18T20:49:41.716Z,264.10
2023-02-18T20:52:11.597Z,277.10
2023-02-18T20:54:39.726Z,264.90
2023-02-18T20:57:08.855Z,276.92
2023-02-18T20:59:36.520Z,260.38
2023-02-18T21:02:04.697Z,284.60
2023-02-18T21:04:32.835Z,254.43
2023-02-18T21:07:00.569Z,256.95
2023-02-18T21:09:29.994Z,263.60
2023-02-18T21:11:57.747Z,271.77
2023-02-18T21:14:25.965Z,275.52
2023-02-18T21:16:53.707Z,270.02
2023-02-18T21:19:24.552Z,271.15
2023-02-18T21:21:52.241Z,270.08
2023-02-18T21:24:19.930Z,266.42
2023-02-18T21:26:49.715Z,260.35
2023-02-18T21:29:17.460Z,267.20
2023-02-18T21:31:45.252Z,249.00
2023-02-18T21:34:15.456Z,268.13
2023-02-18T21:36:44.040Z,260.38
2023-02-18T21:39:12.663Z,255.60
2023-02-18T21:41:41.397Z,278.15
2023-02-18T21:44:10.799Z,244.00
2023-02-18T21:46:39.950Z,238.18
2023-02-18T21:49:09.405Z,246.38
2023-02-18T21:51:57.867Z,262.92
2023-02-18T21:54:27.494Z,264.25
2023-02-18T21:56:55.944Z,277.75
2023-02-18T21:59:27.528Z,257.42
2023-02-18T22:01:55.399Z,268.83
2023-02-18T22:04:23.826Z,258.58
2023-02-18T22:06:51.475Z,255.60
2023-02-18T22:09:19.438Z,262.45
2023-02-18T22:11:47.223Z,235.80
2023-02-18T22:14:15.898Z,267.15
2023-02-18T22:16:45.249Z,270.45
2023-02-18T22:19:14.244Z,278.38
2023-02-18T22:21:43.135Z,261.95
2023-02-18T22:24:12.787Z,256.02
2023-02-18T22:26:41.177Z,272.30
2023-02-18T22:29:08.886Z,261.30
2023-02-18T22:31:36.637Z,250.13
2023-02-18T22:34:06.052Z,264.45
2023-02-18T22:36:34.674Z,280.80
2023-02-18T22:39:02.887Z,267.95
2023-02-18T22:41:32.461Z,261.63
2023-02-18T22:44:02.573Z,259.10
2023-02-18T22:46:32.177Z,255.70
2023-02-18T22:49:00.744Z,250.55
2023-02-18T22:51:31.429Z,266.08
2023-02-18T22:54:00.908Z,250.57
2023-02-18T22:56:30.093Z,249.18
2023-02-18T22:58:59.705Z,265.50
2023-02-18T23:01:29.541Z,270.90
2023-02-18T23:03:59.022Z,252.45
2023-02-18T23:06:26.690Z,283.35
2023-02-18T23:08:56.605Z,270.88
2023-02-18T23:11:25.111Z,258.40
2023-02-18T23:14:08.778Z,271.13
2023-02-18T23:16:56.669Z,258.27
2023-02-18T23:19:26.208Z,259.40
2023-02-18T23:21:54.347Z,259.63
2023-02-18T23:24:23.684Z,272.20
2023-02-18T23:26:51.859Z,261.17
2023-02-18T23:29:19.638Z,251.23
2023-02-18T23:31:47.457Z,257.08
2023-02-18T23:34:17.776Z,259.92
2023-02-18T23:36:47.275Z,248.35
2023-02-18T23:39:18.030Z,253.02
2023-02-18T23:41:48.654Z,261.17
2023-02-18T23:44:18.474Z,261.73
2023-02-18T23:46:46.646Z,257.92
2023-02-18T23:49:16.023Z,268.88
2023-02-18T23:51:44.149Z,259.50
2023-02-18T23:54:12.733Z,273.85
2023-02-18T23:56:40.736Z,255.05
2023-02-18T23:59:11.075Z,268.27
